Main page
METAR-TAF:

METAR-TAF

Airports :

Fuaʻamotu International Airport

Tongatapu, Tonga

latitude: 21-14S, longitude: 175-09W, elevation: 38 m

Current weather observation

The report was made 8 hours and 59 minutes ago, at 05:00 UTC
Wind 6 kt from the East/Northeast
Temperature 25°C
Humidity 83%
Pressure 1014 hPa
Visibility 10 km or more
Few clouds at a height of 900 ft
Scattered clouds at a height of 1700 ft
Broken clouds at a height of 4000 ft

METAR: NFTF 210500Z 06006KT 9999 FEW009 SCT017 BKN040 25/22 Q1014

Time: 02:59 (13:59 UTC)

Forecast

The report was made 14 hours and 49 minutes ago, at 23:10 UTC
Forecast valid from 21 at 00 UTC to 21 at 24 UTC
Wind 10 kt from the Northeast
Visibility 10 km or more
Scattered clouds at a height of 1700 ft
Broken clouds at a height of 4000 ft

TAF: NFTF 202310Z 2100/2124 05010KT 9999 SCT017 BKN040

Weather observations and forecasts of more than 4000 airports (METAR and TAF reports).

The available stations are represented by yellow and red dots on the map.

Hover mouse over dot to see the name of the station.

Then click to see weather observations and forecasts.

To change the map : click on the green buttons with a black cross to zoom in, on the green button with a dash to zoom out, or on the green arrows for adjacent maps.


METAR-TAF: